Time;durP1;ratioP1;P1;durP2;ratioP2;P2;SDS_P1;SDS_P2;PMS_P1;PMS_P2;Temp;Humidity;BMP_temperature;BMP_pressure;BME280_temperature;BME280_humidity;BME280_pressure;Samples;Min_cycle;Max_cycle;Signal;HPM_P1;HPM_P2
2023/08/13 00:00:30;;;;;;;3.28;1.48;;;15.70;99.90;;;;;;5044809;28;20048;-62
2023/08/13 00:02:58;;;;;;;5.72;1.35;;;15.60;99.90;;;;;;5046097;28;20044;-62
2023/08/13 00:05:26;;;;;;;3.55;1.48;;;15.60;99.90;;;;;;5049920;28;20045;-61
2023/08/13 00:07:54;;;;;;;5.47;1.35;;;15.60;99.90;;;;;;5045259;28;20377;-62
2023/08/13 00:10:22;;;;;;;3.60;1.10;;;15.60;99.90;;;;;;5047310;28;20037;-62
2023/08/13 00:12:50;;;;;;;2.50;1.15;;;15.50;99.90;;;;;;5044225;28;20456;-62
2023/08/13 00:15:18;;;;;;;6.53;1.42;;;15.50;99.90;;;;;;5047530;28;20049;-61
2023/08/13 00:17:45;;;;;;;6.57;1.58;;;15.50;99.90;;;;;;5050116;28;20056;-62
2023/08/13 00:20:13;;;;;;;5.05;1.30;;;15.50;99.90;;;;;;5044736;28;20053;-62
2023/08/13 00:22:41;;;;;;;3.42;1.23;;;15.50;99.90;;;;;;5045795;28;20044;-62
2023/08/13 00:25:09;;;;;;;3.25;1.20;;;15.40;99.90;;;;;;5044413;28;20048;-62
2023/08/13 00:55:56;;;;;;;5.00;1.52;;;15.30;99.90;;;;;;5050167;28;20738;-61
2023/08/13 00:58:24;;;;;;;11.40;1.63;;;15.20;99.90;;;;;;5041703;28;20041;-63
2023/08/13 01:01:18;;;;;;;7.10;1.55;;;15.10;99.90;;;;;;5041754;28;20036;-61
2023/08/13 01:03:46;;;;;;;6.90;1.67;;;15.10;99.90;;;;;;5026744;28;20053;-61
2023/08/13 01:06:29;;;;;;;7.20;1.75;;;15.00;99.90;;;;;;5038846;28;20049;-61
2023/08/13 01:08:59;;;;;;;4.82;1.70;;;15.00;99.90;;;;;;5043383;28;20048;-61
2023/08/13 01:12:03;;;;;;;7.28;1.90;;;15.00;99.90;;;;;;5042780;28;20040;-62
2023/08/13 01:14:42;;;;;;;9.13;1.60;;;15.00;99.90;;;;;;5049322;28;20499;-61
2023/08/13 01:17:11;;;;;;;11.05;2.65;;;14.90;99.90;;;;;;5047829;28;20056;-62
2023/08/13 01:19:40;;;;;;;8.13;1.70;;;14.90;99.90;;;;;;5046020;28;20040;-61
2023/08/13 01:22:07;;;;;;;6.70;1.80;;;14.80;99.90;;;;;;5041156;28;20396;-62
2023/08/13 01:24:36;;;;;;;14.32;2.17;;;14.80;99.90;;;;;;5044402;28;20045;-62
2023/08/13 01:27:25;;;;;;;4.38;1.85;;;14.80;99.90;;;;;;5043998;28;20056;-61
2023/08/13 01:30:00;;;;;;;7.97;1.42;;;14.80;99.90;;;;;;5050219;28;20472;-62
2023/08/13 01:32:43;;;;;;;10.00;1.90;;;14.80;99.90;;;;;;5040012;28;20057;-62
2023/08/13 01:35:11;;;;;;;9.18;1.30;;;14.80;99.90;;;;;;5048351;28;20619;-62
2023/08/13 01:37:40;;;;;;;7.45;1.40;;;14.80;99.90;;;;;;5045438;28;20033;-62
2023/08/13 01:40:09;;;;;;;5.27;1.33;;;14.70;99.90;;;;;;5053096;28;20562;-61
2023/08/13 01:42:36;;;;;;;5.63;1.00;;;14.70;99.90;;;;;;5031575;28;20045;-62
2023/08/13 01:45:04;;;;;;;8.38;1.90;;;14.70;99.90;;;;;;5052645;28;20048;-61
2023/08/13 01:47:32;;;;;;;4.72;1.30;;;14.60;99.90;;;;;;5044954;28;20044;-61
2023/08/13 01:50:00;;;;;;;7.63;1.52;;;14.60;99.90;;;;;;5049481;28;20037;-61
2023/08/13 01:52:28;;;;;;;6.00;1.50;;;14.50;99.90;;;;;;5049793;28;20396;-61
2023/08/13 01:54:55;;;;;;;7.18;1.55;;;14.50;99.90;;;;;;5049299;28;20036;-61
2023/08/13 01:57:23;;;;;;;9.60;1.65;;;14.40;99.90;;;;;;5049364;28;20384;-61
2023/08/13 01:59:51;;;;;;;5.63;1.40;;;14.40;99.90;;;;;;5050099;28;20629;-61
2023/08/13 02:02:23;;;;;;;10.77;1.90;;;14.40;99.90;;;;;;5039042;28;20053;-61
2023/08/13 02:04:51;;;;;;;4.53;1.42;;;14.30;99.90;;;;;;5048194;28;20033;-61
2023/08/13 02:07:18;;;;;;;6.97;2.20;;;14.30;99.90;;;;;;5048894;28;20048;-61
2023/08/13 02:09:46;;;;;;;6.80;1.90;;;14.30;99.90;;;;;;5050849;28;20041;-61
2023/08/13 02:12:14;;;;;;;9.95;1.58;;;14.30;99.90;;;;;;5049518;28;20064;-62
2023/08/13 02:14:42;;;;;;;5.60;1.60;;;14.20;99.90;;;;;;5051995;28;20042;-61
2023/08/13 02:17:15;;;;;;;6.90;1.52;;;14.20;99.90;;;;;;5047171;28;20037;-62
2023/08/13 02:19:43;;;;;;;6.95;1.27;;;14.20;99.90;;;;;;5052392;28;20045;-61
2023/08/13 02:22:11;;;;;;;8.38;1.92;;;14.10;99.90;;;;;;5032647;28;20378;-60
2023/08/13 02:24:39;;;;;;;6.50;1.63;;;14.10;99.90;;;;;;5045772;28;20397;-62
2023/08/13 02:27:07;;;;;;;6.85;1.98;;;14.10;99.90;;;;;;5050093;28;20049;-61
2023/08/13 02:29:34;;;;;;;7.45;1.70;;;14.10;99.90;;;;;;5051886;28;20072;-61
2023/08/13 02:32:03;;;;;;;5.53;1.40;;;14.10;99.90;;;;;;5048606;28;20051;-61
2023/08/13 02:34:44;;;;;;;8.15;1.63;;;14.00;99.90;;;;;;5049035;28;20049;-61
2023/08/13 02:37:12;;;;;;;6.00;1.80;;;14.10;99.90;;;;;;5044327;28;20045;-61
2023/08/13 02:39:40;;;;;;;8.88;1.50;;;14.10;99.90;;;;;;5051472;28;20040;-61
2023/08/13 02:42:07;;;;;;;9.60;2.15;;;14.10;99.90;;;;;;5048576;28;20068;-62
2023/08/13 02:44:35;;;;;;;8.73;2.00;;;14.10;99.90;;;;;;5050852;28;20044;-62
2023/08/13 02:47:03;;;;;;;7.13;1.80;;;14.20;99.90;;;;;;5048658;28;20052;-61
2023/08/13 02:49:30;;;;;;;5.70;1.55;;;14.20;99.90;;;;;;5046984;28;20095;-61
2023/08/13 02:51:58;;;;;;;7.35;1.60;;;14.30;99.90;;;;;;5046731;28;20377;-61
2023/08/13 02:54:26;;;;;;;5.88;1.55;;;14.30;99.90;;;;;;5047443;28;20037;-61
2023/08/13 02:56:53;;;;;;;9.77;1.63;;;14.40;99.90;;;;;;5047375;28;20045;-61
2023/08/13 02:59:21;;;;;;;7.63;1.33;;;14.50;99.90;;;;;;5048129;28;20044;-61
2023/08/13 03:01:51;;;;;;;8.35;1.50;;;14.60;99.90;;;;;;5046370;28;20043;-61
2023/08/13 03:04:22;;;;;;;11.18;1.75;;;14.60;99.90;;;;;;5049241;28;20056;-61
2023/08/13 03:06:50;;;;;;;10.70;1.40;;;14.80;99.90;;;;;;5047138;28;20469;-61
2023/08/13 03:09:20;;;;;;;10.55;1.88;;;14.90;99.90;;;;;;5048409;28;20049;-61
2023/08/13 03:11:48;;;;;;;;;;;14.90;99.90;;;;;;5048976;28;20041;-61
2023/08/13 03:14:16;;;;;;;4.78;1.50;;;15.00;99.90;;;;;;5049765;28;19920;-61
2023/08/13 03:16:44;;;;;;;9.80;1.40;;;15.00;99.90;;;;;;5049602;28;20064;-61
2023/08/13 03:19:13;;;;;;;5.22;1.63;;;15.00;99.90;;;;;;5047873;28;20041;-61
2023/08/13 03:21:44;;;;;;;10.80;1.83;;;15.10;99.90;;;;;;5046196;28;20041;-61
2023/08/13 03:24:11;;;;;;;11.88;1.73;;;15.10;99.90;;;;;;5047978;28;20048;-61
2023/08/13 03:26:41;;;;;;;9.50;1.98;;;15.10;99.90;;;;;;5050277;28;20048;-62
2023/08/13 03:29:09;;;;;;;7.43;1.92;;;15.10;99.90;;;;;;5049172;28;20049;-62
2023/08/13 03:31:37;;;;;;;8.82;1.95;;;15.10;99.90;;;;;;5050980;28;20044;-62
2023/08/13 03:34:19;;;;;;;5.68;1.77;;;15.10;99.90;;;;;;5047746;28;20041;-61
2023/08/13 03:36:47;;;;;;;8.07;2.35;;;15.10;99.90;;;;;;5048794;28;20045;-61
2023/08/13 03:39:15;;;;;;;5.35;1.40;;;15.20;99.90;;;;;;5049549;28;20047;-61
2023/08/13 03:41:43;;;;;;;6.72;2.15;;;15.20;99.90;;;;;;5050930;28;20041;-61
2023/08/13 03:44:12;;;;;;;10.40;2.88;;;15.20;99.90;;;;;;5049674;28;20404;-61
2023/08/13 03:46:40;;;;;;;6.97;2.47;;;15.20;99.90;;;;;;5032373;28;20041;-62
2023/08/13 03:49:07;;;;;;;5.38;2.20;;;15.20;99.90;;;;;;5049690;28;20040;-62
2023/08/13 03:51:35;;;;;;;7.88;2.10;;;15.20;99.90;;;;;;5049891;28;20036;-61
2023/08/13 03:54:03;;;;;;;8.57;2.60;;;15.20;99.90;;;;;;5050759;28;20491;-61
2023/08/13 03:56:36;;;;;;;7.22;2.30;;;15.20;99.90;;;;;;5051485;28;20388;-62
2023/08/13 03:59:04;;;;;;;8.85;2.22;;;15.20;99.90;;;;;;5049018;28;20048;-62
2023/08/13 04:01:32;;;;;;;4.82;2.42;;;15.20;99.90;;;;;;5044493;28;20037;-61
2023/08/13 04:04:01;;;;;;;8.30;2.03;;;15.20;99.90;;;;;;5050421;28;20049;-60
2023/08/13 04:06:30;;;;;;;8.82;2.70;;;15.20;99.90;;;;;;5049581;28;20048;-62
2023/08/13 04:08:57;;;;;;;8.60;2.30;;;15.20;99.90;;;;;;5048488;28;20045;-63
2023/08/13 04:11:25;;;;;;;9.30;2.50;;;15.20;99.90;;;;;;5049486;28;20049;-62
2023/08/13 04:13:53;;;;;;;7.40;2.22;;;15.20;99.90;;;;;;5049185;28;20033;-62
2023/08/13 04:16:22;;;;;;;6.70;2.47;;;15.20;99.90;;;;;;5048492;28;20048;-62
2023/08/13 04:18:50;;;;;;;7.15;2.50;;;15.20;99.90;;;;;;5047203;28;20037;-62
2023/08/13 04:21:20;;;;;;;11.98;2.55;;;15.20;99.90;;;;;;5049684;28;20033;-62
2023/08/13 04:23:48;;;;;;;9.20;2.17;;;15.10;99.90;;;;;;5044381;28;20057;-61
2023/08/13 04:26:15;;;;;;;10.80;2.80;;;15.10;99.90;;;;;;5050079;28;20512;-62
2023/08/13 04:28:43;;;;;;;9.05;2.80;;;15.10;99.90;;;;;;5050142;28;20048;-61
2023/08/13 04:31:11;;;;;;;8.05;2.47;;;15.00;99.90;;;;;;5049305;28;20059;-61
2023/08/13 04:33:40;;;;;;;8.90;2.47;;;15.00;99.90;;;;;;5049373;28;20488;-62
2023/08/13 04:36:08;;;;;;;10.35;2.20;;;15.00;99.90;;;;;;5045138;28;20053;-62
2023/08/13 04:38:35;;;;;;;9.20;2.67;;;14.90;99.90;;;;;;5050067;28;20045;-62
2023/08/13 04:41:05;;;;;;;7.05;2.00;;;14.90;99.90;;;;;;5049503;28;20432;-62
2023/08/13 04:43:39;;;;;;;6.75;1.70;;;14.90;99.90;;;;;;5051808;28;20037;-62
2023/08/13 04:46:07;;;;;;;11.13;2.33;;;14.90;99.90;;;;;;5052390;28;20055;-62
2023/08/13 04:48:44;;;;;;;7.32;1.75;;;14.80;99.90;;;;;;5042849;28;20477;-63
2023/08/13 04:51:21;;;;;;;11.10;2.13;;;14.80;99.90;;;;;;5045362;28;20062;-62
2023/08/13 04:53:50;;;;;;;7.43;1.67;;;14.80;99.90;;;;;;5044067;28;20377;-62
2023/08/13 04:56:20;;;;;;;9.15;2.03;;;14.80;99.90;;;;;;5049343;28;20072;-61
2023/08/13 04:58:48;;;;;;;14.43;2.72;;;14.80;99.90;;;;;;5044196;28;20040;-61
2023/08/13 05:01:17;;;;;;;6.90;2.17;;;14.80;99.90;;;;;;5048441;28;20049;-61
2023/08/13 05:03:50;;;;;;;16.08;2.80;;;14.80;99.90;;;;;;5037812;28;20041;-62
2023/08/13 05:06:19;;;;;;;10.85;3.10;;;14.80;99.90;;;;;;5044784;28;20049;-61
2023/08/13 05:08:46;;;;;;;13.52;2.55;;;14.80;99.90;;;;;;5050134;28;20053;-61
2023/08/13 05:11:15;;;;;;;5.45;2.83;;;14.80;99.90;;;;;;5031398;28;20041;-62
2023/08/13 05:13:43;;;;;;;8.85;3.13;;;14.80;99.90;;;;;;5044534;28;20396;-62
2023/08/13 05:16:11;;;;;;;6.38;2.72;;;14.80;99.90;;;;;;5048770;28;20043;-62
2023/08/13 05:18:40;;;;;;;10.50;2.73;;;14.80;99.90;;;;;;5042240;28;20037;-62
2023/08/13 05:21:08;;;;;;;8.32;3.30;;;14.80;99.90;;;;;;5044768;28;20305;-62
2023/08/13 05:23:36;;;;;;;5.03;2.67;;;14.80;99.90;;;;;;5017018;28;20041;-62
2023/08/13 05:26:04;;;;;;;11.95;3.35;;;14.90;99.90;;;;;;5042580;28;20427;-62
2023/08/13 05:28:33;;;;;;;7.45;3.15;;;14.90;99.90;;;;;;5041323;28;20424;-62
2023/08/13 05:31:05;;;;;;;8.23;3.60;;;15.00;99.90;;;;;;5040926;28;20048;-61
2023/08/13 05:33:34;;;;;;;10.13;2.75;;;14.90;99.90;;;;;;5045174;28;20041;-62
2023/08/13 05:36:02;;;;;;;12.32;2.58;;;14.90;99.90;;;;;;5040972;28;20044;-61
2023/08/13 05:38:31;;;;;;;9.90;2.90;;;15.00;99.90;;;;;;5044111;28;20037;-63
2023/08/13 05:41:03;;;;;;;8.65;2.40;;;15.00;99.90;;;;;;5046118;28;20385;-61
2023/08/13 05:43:31;;;;;;;8.68;2.22;;;15.00;99.90;;;;;;5044592;28;20048;-62
2023/08/13 05:45:59;;;;;;;6.57;2.10;;;15.10;99.90;;;;;;5038410;28;20049;-62
2023/08/13 05:48:27;;;;;;;7.47;1.77;;;15.10;99.90;;;;;;5046530;28;20052;-62
2023/08/13 05:50:54;;;;;;;8.00;2.08;;;15.10;99.90;;;;;;5048265;28;20041;-62
2023/08/13 05:53:23;;;;;;;9.40;2.10;;;15.10;99.90;;;;;;5045780;28;20052;-61
2023/08/13 05:55:52;;;;;;;9.13;2.03;;;15.10;99.90;;;;;;5043184;28;20646;-61
2023/08/13 05:58:20;;;;;;;6.85;2.40;;;15.20;99.90;;;;;;5042747;28;20053;-62
2023/08/13 06:00:47;;;;;;;9.30;2.30;;;15.20;99.90;;;;;;5039822;28;20052;-61
2023/08/13 06:03:15;;;;;;;8.27;2.00;;;15.20;99.90;;;;;;5052642;28;20504;-62
2023/08/13 06:05:43;;;;;;;8.77;1.75;;;15.30;99.90;;;;;;5040944;28;20040;-61
2023/08/13 06:08:11;;;;;;;7.00;1.80;;;15.30;99.90;;;;;;5038527;28;20049;-61
2023/08/13 06:10:38;;;;;;;8.15;2.03;;;15.40;99.90;;;;;;5043182;28;20049;-62
2023/08/13 06:13:07;;;;;;;6.07;2.50;;;15.50;99.90;;;;;;5045814;28;20052;-62
2023/08/13 06:15:34;;;;;;;9.75;2.20;;;15.60;99.90;;;;;;5036386;28;20045;-62
2023/08/13 06:18:02;;;;;;;8.00;1.50;;;15.60;99.90;;;;;;5044239;28;20483;-61
2023/08/13 06:20:31;;;;;;;7.82;2.70;;;15.70;99.90;;;;;;5044221;28;20059;-62
2023/08/13 06:22:59;;;;;;;7.93;2.00;;;15.70;99.90;;;;;;5046623;28;20064;-62
2023/08/13 06:25:27;;;;;;;8.75;1.60;;;15.70;99.90;;;;;;5043213;28;20045;-62
2023/08/13 06:27:54;;;;;;;7.10;1.65;;;15.70;99.90;;;;;;5045708;28;20070;-62
2023/08/13 06:30:24;;;;;;;8.10;2.00;;;15.70;99.90;;;;;;5041726;28;20041;-62
2023/08/13 06:32:51;;;;;;;7.88;2.00;;;15.70;99.90;;;;;;5043441;28;20052;-62
2023/08/13 06:35:21;;;;;;;5.32;1.73;;;15.80;99.90;;;;;;5046047;28;20056;-62
2023/08/13 06:38:01;;;;;;;8.07;3.03;;;15.80;99.90;;;;;;5040438;28;20048;-62
2023/08/13 06:40:32;;;;;;;10.27;1.98;;;15.90;99.90;;;;;;5037357;28;20048;-62
2023/08/13 06:43:00;;;;;;;4.90;1.70;;;16.00;99.90;;;;;;5039555;28;20049;-62
2023/08/13 06:45:29;;;;;;;9.45;2.20;;;16.10;99.90;;;;;;5037416;28;20048;-62
2023/08/13 06:47:57;;;;;;;7.50;2.08;;;16.20;99.90;;;;;;5036325;28;20511;-62
2023/08/13 06:50:27;;;;;;;5.60;2.20;;;16.30;99.90;;;;;;5042607;28;20060;-62
2023/08/13 06:52:58;;;;;;;9.50;1.58;;;16.40;99.90;;;;;;5046024;28;20041;-62
2023/08/13 06:55:26;;;;;;;5.68;1.83;;;16.60;99.90;;;;;;5034361;28;20077;-63
2023/08/13 06:57:54;;;;;;;6.90;1.73;;;16.70;99.90;;;;;;5035540;28;20044;-62
2023/08/13 07:00:21;;;;;;;8.40;1.90;;;16.80;99.90;;;;;;5040910;28;21841;-62
2023/08/13 07:03:06;;;;;;;9.25;1.65;;;16.80;99.90;;;;;;5036210;28;20052;-62
2023/08/13 07:05:35;;;;;;;4.57;1.10;;;16.90;99.90;;;;;;5036128;28;20476;-61
2023/08/13 07:08:04;;;;;;;8.98;2.67;;;16.90;99.90;;;;;;5037752;28;20061;-61
2023/08/13 07:10:33;;;;;;;7.97;2.40;;;16.90;99.90;;;;;;5038273;28;20045;-61
2023/08/13 07:13:01;;;;;;;5.55;1.50;;;17.00;99.90;;;;;;5037912;28;20049;-62
2023/08/13 07:15:29;;;;;;;7.15;1.52;;;16.90;99.90;;;;;;5038753;28;20501;-63
2023/08/13 07:17:57;;;;;;;5.82;1.50;;;16.90;99.90;;;;;;5037622;28;20056;-62
2023/08/13 07:20:25;;;;;;;3.92;1.35;;;16.90;99.90;;;;;;5040517;28;20531;-63
2023/08/13 07:22:52;;;;;;;6.80;1.25;;;16.90;99.90;;;;;;5032966;28;20065;-62
2023/08/13 07:25:20;;;;;;;7.72;1.20;;;17.00;99.90;;;;;;5040321;28;20049;-62
2023/08/13 07:27:48;;;;;;;4.25;1.10;;;17.00;99.90;;;;;;5036833;28;20068;-62
2023/08/13 07:30:16;;;;;;;8.02;1.75;;;17.00;99.90;;;;;;5034356;28;20053;-62
2023/08/13 07:32:44;;;;;;;4.53;1.35;;;17.10;99.90;;;;;;5040525;28;20049;-62
2023/08/13 07:35:12;;;;;;;3.05;1.50;;;17.10;99.90;;;;;;5036721;28;20049;-62
2023/08/13 07:37:40;;;;;;;4.60;1.42;;;17.00;99.90;;;;;;5034103;28;20037;-62
2023/08/13 07:40:11;;;;;;;4.40;1.27;;;17.10;99.90;;;;;;5033450;28;20052;-62
2023/08/13 07:42:40;;;;;;;5.07;1.45;;;17.10;99.90;;;;;;5041478;28;20045;-62
2023/08/13 07:45:10;;;;;;;2.60;1.30;;;17.10;99.90;;;;;;5035699;28;20646;-62
2023/08/13 07:47:39;;;;;;;5.97;0.90;;;17.10;99.90;;;;;;5036167;28;20037;-63
2023/08/13 07:50:08;;;;;;;0.82;0.57;;;17.20;99.90;;;;;;5035480;28;20739;-62
2023/08/13 07:52:36;;;;;;;4.50;0.93;;;17.20;99.90;;;;;;5040662;28;20041;-62
2023/08/13 07:55:05;;;;;;;4.35;0.98;;;17.40;99.90;;;;;;5046313;28;20075;-62
2023/08/13 07:57:33;;;;;;;5.05;0.80;;;17.50;99.90;;;;;;5045054;28;20673;-61
2023/08/13 08:00:01;;;;;;;3.60;0.88;;;17.60;99.90;;;;;;5039824;28;20665;-61
2023/08/13 08:02:39;;;;;;;7.03;1.27;;;17.70;99.90;;;;;;5042865;28;20056;-62
2023/08/13 08:05:08;;;;;;;5.13;1.40;;;17.70;99.90;;;;;;5040551;28;20052;-61
2023/08/13 08:07:36;;;;;;;7.75;1.58;;;17.80;99.90;;;;;;5038337;28;20404;-62
2023/08/13 08:10:04;;;;;;;3.72;1.27;;;17.80;99.90;;;;;;5035787;28;20076;-61
2023/08/13 08:12:32;;;;;;;4.20;1.48;;;17.90;99.90;;;;;;5040937;28;20045;-62
2023/08/13 08:15:00;;;;;;;5.70;1.17;;;17.90;99.90;;;;;;5032008;28;20055;-61
2023/08/13 08:17:28;;;;;;;4.68;1.13;;;17.80;99.90;;;;;;5046938;28;20056;-62
2023/08/13 08:19:56;;;;;;;5.80;1.30;;;17.80;99.90;;;;;;5043395;28;20060;-63
2023/08/13 08:22:23;;;;;;;4.13;0.90;;;17.80;99.90;;;;;;5042282;28;20504;-63
2023/08/13 08:24:51;;;;;;;3.00;1.00;;;17.80;99.90;;;;;;5045117;28;20057;-62
2023/08/13 08:27:19;;;;;;;4.30;1.38;;;17.70;99.90;;;;;;5046744;28;20049;-62
2023/08/13 08:29:47;;;;;;;4.57;1.55;;;17.70;99.90;;;;;;5047881;28;20056;-62
2023/08/13 08:32:14;;;;;;;2.72;1.25;;;17.70;99.90;;;;;;5042547;28;20578;-61
2023/08/13 08:34:42;;;;;;;4.10;1.23;;;17.60;99.90;;;;;;5045754;28;20045;-61
2023/08/13 08:37:11;;;;;;;4.00;1.10;;;17.50;99.90;;;;;;5043159;28;20047;-62
2023/08/13 08:39:39;;;;;;;3.10;0.98;;;17.40;99.90;;;;;;5045238;28;20055;-61
2023/08/13 08:42:11;;;;;;;4.72;1.00;;;17.40;99.90;;;;;;5040851;28;20037;-61
2023/08/13 08:44:44;;;;;;;4.35;1.10;;;17.30;99.90;;;;;;5046330;28;20044;-60
2023/08/13 08:47:14;;;;;;;1.85;1.00;;;17.20;99.90;;;;;;5046330;28;20073;-60
2023/08/13 08:49:46;;;;;;;5.27;1.27;;;17.10;99.90;;;;;;5044171;28;20041;-60
2023/08/13 08:52:16;;;;;;;3.83;0.90;;;17.00;99.90;;;;;;5043796;28;20048;-61
2023/08/13 08:54:44;;;;;;;;;;;17.00;99.90;;;;;;5046890;28;20514;-60
2023/08/13 08:57:12;;;;;;;2.50;0.85;;;16.90;99.90;;;;;;5049453;28;19921;-61
2023/08/13 08:59:40;;;;;;;3.05;1.30;;;16.90;99.90;;;;;;5046143;28;20044;-61
2023/08/13 09:02:10;;;;;;;4.85;1.38;;;16.80;99.90;;;;;;5046741;28;20064;-61
2023/08/13 09:04:38;;;;;;;1.92;1.25;;;16.70;99.90;;;;;;5046294;28;20041;-61
2023/08/13 09:07:06;;;;;;;4.70;1.60;;;16.80;99.90;;;;;;5041670;28;20060;-61
2023/08/13 09:09:34;;;;;;;6.82;1.55;;;16.80;99.90;;;;;;5043144;28;20473;-61
2023/08/13 09:12:03;;;;;;;2.67;1.10;;;16.90;99.90;;;;;;5044851;28;20045;-61
2023/08/13 09:14:30;;;;;;;1.75;1.00;;;17.00;99.90;;;;;;5043398;28;20045;-61
2023/08/13 09:16:58;;;;;;;3.78;1.20;;;17.20;99.90;;;;;;5044466;28;20048;-62
2023/08/13 09:19:27;;;;;;;3.20;1.25;;;17.20;99.90;;;;;;5044215;28;20044;-62
2023/08/13 09:21:59;;;;;;;3.87;1.00;;;17.30;99.90;;;;;;5044250;28;20068;-61
2023/08/13 09:24:37;;;;;;;5.32;1.40;;;17.30;99.90;;;;;;5044857;28;20041;-61
2023/08/13 09:27:08;;;;;;;2.20;0.77;;;17.40;99.90;;;;;;5044243;28;20040;-62
2023/08/13 09:29:39;;;;;;;5.68;0.98;;;17.40;99.90;;;;;;5044804;28;20041;-61
2023/08/13 09:32:06;;;;;;;2.85;1.00;;;17.50;99.90;;;;;;5030835;28;20049;-61
2023/08/13 09:34:34;;;;;;;3.28;1.20;;;17.60;99.90;;;;;;5044798;28;20048;-62
2023/08/13 09:37:02;;;;;;;3.00;1.25;;;17.60;99.90;;;;;;5042560;28;20045;-62
2023/08/13 09:39:31;;;;;;;3.20;1.00;;;17.60;99.90;;;;;;5045275;28;20044;-62
2023/08/13 09:42:01;;;;;;;3.15;0.95;;;17.50;99.90;;;;;;5041872;28;20045;-61
2023/08/13 09:44:30;;;;;;;2.83;0.90;;;17.40;99.90;;;;;;5044126;28;20481;-60
2023/08/13 09:47:03;;;;;;;3.97;1.02;;;17.40;99.90;;;;;;5039750;28;20554;-61
2023/08/13 09:49:33;;;;;;;1.98;0.90;;;17.30;99.90;;;;;;5042916;28;20049;-59
2023/08/13 09:52:08;;;;;;;2.08;0.75;;;17.30;99.90;;;;;;5038026;28;20084;-60
2023/08/13 09:54:52;;;;;;;3.90;0.95;;;17.30;99.90;;;;;;5044499;28;20037;-61
2023/08/13 09:57:22;;;;;;;1.35;0.88;;;17.20;99.90;;;;;;5044153;28;20048;-60
2023/08/13 09:59:50;;;;;;;5.00;0.90;;;17.10;99.90;;;;;;5045653;28;20044;-58
2023/08/13 10:02:21;;;;;;;5.68;1.00;;;17.10;99.90;;;;;;5014548;28;20061;-59
2023/08/13 10:04:52;;;;;;;0.75;0.50;;;16.90;99.90;;;;;;5048135;28;20041;-59
2023/08/13 10:07:20;;;;;;;3.72;0.68;;;16.80;99.90;;;;;;5038071;28;20045;-59
2023/08/13 10:09:49;;;;;;;2.28;0.50;;;16.70;99.90;;;;;;5044497;28;20056;-59
2023/08/13 10:12:33;;;;;;;0.70;0.30;;;16.70;99.90;;;;;;5043760;28;20048;-62
2023/08/13 10:15:02;;;;;;;1.65;0.38;;;16.80;99.90;;;;;;5044019;28;20544;-63
2023/08/13 10:17:32;;;;;;;1.95;0.38;;;16.90;99.90;;;;;;5044469;28;20041;-62
2023/08/13 10:20:01;;;;;;;0.43;0.32;;;16.90;99.90;;;;;;5045731;28;20780;-63
2023/08/13 10:22:37;;;;;;;0.30;0.30;;;17.00;99.90;;;;;;5041185;28;20048;-63
2023/08/13 10:25:07;;;;;;;0.88;0.47;;;17.10;99.90;;;;;;5042403;28;20060;-62
2023/08/13 10:27:42;;;;;;;0.80;0.30;;;17.40;99.90;;;;;;5048688;28;20048;-63
2023/08/13 10:30:14;;;;;;;1.13;0.40;;;17.60;99.90;;;;;;5054622;28;20408;-64
2023/08/13 10:32:54;;;;;;;1.48;0.40;;;17.80;99.90;;;;;;5033574;28;20041;-63
2023/08/13 10:35:41;;;;;;;3.13;0.50;;;18.00;99.90;;;;;;5025032;28;20045;-62
2023/08/13 10:38:10;;;;;;;2.50;0.40;;;18.30;99.90;;;;;;5026080;28;20073;-63
2023/08/13 10:40:59;;;;;;;1.73;0.40;;;18.40;99.90;;;;;;5031009;28;20060;-63
2023/08/13 10:43:27;;;;;;;0.75;0.57;;;18.70;99.90;;;;;;5031173;28;20079;-63
2023/08/13 10:45:55;;;;;;;1.67;0.28;;;19.00;99.90;;;;;;5030902;28;20044;-63
2023/08/13 10:48:27;;;;;;;1.83;0.65;;;19.30;99.90;;;;;;5026739;28;20392;-63
2023/08/13 10:50:57;;;;;;;6.35;0.77;;;19.60;99.90;;;;;;5033210;28;20520;-64
2023/08/13 10:53:26;;;;;;;2.78;0.60;;;19.70;99.90;;;;;;5047926;28;20500;-63
2023/08/13 10:55:56;;;;;;;4.20;0.65;;;19.70;99.90;;;;;;5039201;28;20245;-64
2023/08/13 10:58:44;;;;;;;5.38;0.52;;;19.60;99.90;;;;;;5043969;28;20056;-63
2023/08/13 11:01:19;;;;;;;2.72;0.50;;;19.40;99.90;;;;;;5026208;28;20049;-64
2023/08/13 11:03:55;;;;;;;1.80;0.57;;;19.10;99.90;;;;;;5035306;28;20053;-63
2023/08/13 11:06:25;;;;;;;5.63;0.60;;;18.90;99.90;;;;;;5026942;28;20484;-63
2023/08/13 11:08:54;;;;;;;2.78;0.60;;;18.70;99.90;;;;;;5038882;28;20080;-64
2023/08/13 11:11:23;;;;;;;3.33;0.47;;;18.50;99.90;;;;;;5039713;28;20053;-63
2023/08/13 11:13:51;;;;;;;2.78;0.60;;;18.40;99.90;;;;;;5051108;28;20397;-64
2023/08/13 11:16:19;;;;;;;2.47;0.40;;;18.40;99.90;;;;;;5051022;28;20053;-64
2023/08/13 11:18:46;;;;;;;2.72;0.50;;;18.40;99.90;;;;;;5031061;28;20053;-63
2023/08/13 11:21:14;;;;;;;6.93;1.13;;;18.60;99.90;;;;;;5023006;28;20053;-64
2023/08/13 11:23:44;;;;;;;3.70;0.70;;;18.70;99.90;;;;;;5026725;28;20046;-63
2023/08/13 11:26:11;;;;;;;5.70;1.07;;;18.80;99.90;;;;;;5034647;28;20049;-64
2023/08/13 11:28:44;;;;;;;7.82;1.13;;;19.00;99.90;;;;;;5036311;28;20049;-65
2023/08/13 11:31:12;;;;;;;4.10;0.70;;;19.00;99.90;;;;;;5025545;28;20053;-64
2023/08/13 11:33:40;;;;;;;6.32;0.88;;;19.00;99.90;;;;;;5027490;28;20388;-64
2023/08/13 11:36:09;;;;;;;10.85;1.30;;;18.80;99.90;;;;;;5022407;28;20462;-63
2023/08/13 11:38:37;;;;;;;3.13;1.08;;;18.70;99.90;;;;;;5033502;28;20072;-64
2023/08/13 11:41:12;;;;;;;3.60;0.50;;;18.70;99.90;;;;;;5038801;28;20045;-64
2023/08/13 11:43:40;;;;;;;3.40;0.80;;;18.70;99.90;;;;;;5043090;28;20040;-64
2023/08/13 11:46:08;;;;;;;10.35;1.13;;;18.90;99.90;;;;;;5037572;28;20052;-64
2023/08/13 11:48:37;;;;;;;8.20;1.00;;;19.00;99.90;;;;;;5023915;28;20049;-64
2023/08/13 11:51:14;;;;;;;2.63;0.57;;;19.30;99.90;;;;;;5031427;28;20606;-64
2023/08/13 11:53:50;;;;;;;2.55;0.52;;;19.60;99.90;;;;;;5039265;28;20291;-64
2023/08/13 11:56:19;;;;;;;5.65;0.40;;;19.90;99.90;;;;;;5042482;28;20546;-64
2023/08/13 11:58:48;;;;;;;5.68;0.70;;;20.00;99.90;;;;;;5038883;28;20044;-64
2023/08/13 12:01:16;;;;;;;1.98;0.43;;;20.10;99.90;;;;;;5031949;28;20052;-64
2023/08/13 12:03:44;;;;;;;3.13;0.98;;;20.10;99.90;;;;;;5041391;28;20729;-64
2023/08/13 12:06:13;;;;;;;3.13;0.82;;;20.20;99.90;;;;;;5042881;28;20040;-64
2023/08/13 12:08:46;;;;;;;3.72;0.50;;;20.40;99.90;;;;;;5027940;28;20060;-64
2023/08/13 12:11:15;;;;;;;3.85;0.60;;;20.40;99.90;;;;;;5028020;28;20049;-65
2023/08/13 12:13:45;;;;;;;1.77;0.50;;;20.40;99.90;;;;;;5039217;28;20488;-65
2023/08/13 12:16:15;;;;;;;3.40;0.75;;;20.40;99.90;;;;;;5030786;28;20049;-65
2023/08/13 12:18:43;;;;;;;2.28;0.60;;;20.40;99.90;;;;;;5010138;28;20057;-64
2023/08/13 12:21:11;;;;;;;1.95;0.43;;;20.30;99.90;;;;;;5042030;28;20048;-62
2023/08/13 12:23:39;;;;;;;2.17;0.50;;;20.20;99.90;;;;;;5047198;28;20087;-62
2023/08/13 12:26:06;;;;;;;1.63;0.30;;;20.10;99.90;;;;;;5042441;28;20507;-62
2023/08/13 12:28:34;;;;;;;1.27;0.40;;;20.10;99.90;;;;;;5039355;28;20053;-61
2023/08/13 12:31:02;;;;;;;2.95;0.73;;;20.00;99.90;;;;;;5047716;28;20043;-61
2023/08/13 12:33:29;;;;;;;3.75;0.60;;;19.90;99.90;;;;;;5050583;28;20047;-62
2023/08/13 12:35:57;;;;;;;3.58;0.32;;;19.90;99.90;;;;;;5046135;28;20037;-62
2023/08/13 12:38:25;;;;;;;2.30;0.43;;;20.00;99.90;;;;;;5057643;28;20049;-62
2023/08/13 12:40:53;;;;;;;2.17;0.50;;;20.10;99.90;;;;;;5057261;28;20049;-61
2023/08/13 12:43:20;;;;;;;0.90;0.30;;;20.50;99.90;;;;;;5044965;28;20049;-64
2023/08/13 12:45:49;;;;;;;3.03;0.43;;;21.00;99.90;;;;;;5043393;28;20056;-64
2023/08/13 12:48:17;;;;;;;3.20;0.40;;;21.30;99.90;;;;;;5041304;28;20071;-64
2023/08/13 12:50:45;;;;;;;3.72;0.50;;;21.20;99.90;;;;;;5027396;28;20508;-64
2023/08/13 12:53:13;;;;;;;1.05;0.65;;;21.10;99.90;;;;;;5038822;28;20514;-65
2023/08/13 12:55:41;;;;;;;4.53;0.40;;;20.90;99.90;;;;;;5029328;28;20046;-65
2023/08/13 12:58:09;;;;;;;3.55;0.55;;;20.90;99.90;;;;;;5032326;28;20052;-65
2023/08/13 13:00:37;;;;;;;2.13;0.77;;;20.90;99.90;;;;;;5042557;28;20478;-65
2023/08/13 13:03:05;;;;;;;5.18;0.80;;;20.90;99.90;;;;;;5024443;28;20064;-64
2023/08/13 13:05:33;;;;;;;2.63;0.60;;;21.20;99.90;;;;;;5037394;28;20215;-66
2023/08/13 13:08:01;;;;;;;1.60;0.40;;;21.90;99.90;;;;;;5031871;28;20051;-65
2023/08/13 13:10:29;;;;;;;4.80;0.70;;;22.40;99.90;;;;;;5042011;28;20487;-65
2023/08/13 13:12:56;;;;;;;3.85;0.40;;;22.60;99.90;;;;;;5044583;28;20053;-64
2023/08/13 13:15:24;;;;;;;4.00;0.50;;;22.70;99.90;;;;;;5060857;28;20041;-65
2023/08/13 13:17:52;;;;;;;3.17;0.60;;;22.80;99.90;;;;;;5042655;28;20057;-64
2023/08/13 13:20:22;;;;;;;0.73;0.40;;;22.80;99.90;;;;;;5045275;28;20041;-65
2023/08/13 13:22:51;;;;;;;2.55;0.65;;;23.10;99.90;;;;;;5045363;28;20052;-65
2023/08/13 13:25:19;;;;;;;4.10;0.47;;;23.30;99.90;;;;;;5044081;28;20052;-63